Time;durP1;ratioP1;P1;durP2;ratioP2;P2;SDS_P1;SDS_P2;PMS_P1;PMS_P2;Temp;Humidity;BMP_temperature;BMP_pressure;BME280_temperature;BME280_humidity;BME280_pressure;Samples;Min_cycle;Max_cycle;Signal;HPM_P1;HPM_P2
2022/05/20 00:00:30;;;;;;;1.75;1.27;;;17.00;78.50;;;;;;4884105;28;95885;-58
2022/05/20 00:03:01;;;;;;;1.38;1.10;;;17.00;78.40;;;;;;4883795;28;96157;-60
2022/05/20 00:05:31;;;;;;;2.15;1.30;;;17.00;78.30;;;;;;4889859;28;95741;-59
2022/05/20 00:08:03;;;;;;;2.30;1.30;;;17.00;78.30;;;;;;4883877;28;95757;-61
2022/05/20 00:10:34;;;;;;;3.20;1.23;;;17.00;78.10;;;;;;4889744;28;95905;-48
2022/05/20 00:13:06;;;;;;;2.38;1.23;;;17.00;78.00;;;;;;4889427;28;96054;-48
2022/05/20 00:15:38;;;;;;;1.20;1.10;;;17.00;78.00;;;;;;4879604;28;96069;-56
2022/05/20 00:18:09;;;;;;;2.70;1.63;;;17.10;78.00;;;;;;4879757;28;95397;-52
2022/05/20 00:20:40;;;;;;;1.93;1.50;;;17.10;78.00;;;;;;4881039;28;95618;-60
2022/05/20 00:23:11;;;;;;;2.03;1.27;;;17.10;77.80;;;;;;4885990;28;96368;-65
2022/05/20 00:25:45;;;;;;;2.38;1.20;;;17.10;77.80;;;;;;4883189;28;95511;-63
2022/05/20 00:28:23;;;;;;;1.60;1.17;;;17.10;75.10;;;;;;4881543;28;95638;-61
2022/05/20 00:30:55;;;;;;;2.45;1.73;;;17.20;77.70;;;;;;4875718;28;96266;-58
2022/05/20 00:33:28;;;;;;;1.45;1.13;;;17.10;77.50;;;;;;4885477;28;96557;-53
2022/05/20 00:36:01;;;;;;;2.17;1.38;;;17.20;77.50;;;;;;4882288;28;96263;-62
2022/05/20 00:38:32;;;;;;;1.70;1.23;;;17.20;77.50;;;;;;4884042;28;96163;-57
2022/05/20 00:41:04;;;;;;;2.03;1.27;;;17.20;77.40;;;;;;4887929;28;96144;-67
2022/05/20 00:43:40;;;;;;;;;;;17.20;77.40;;;;;;4889731;28;96532;-48
2022/05/20 00:46:20;;;;;;;1.02;0.95;;;17.20;77.50;;;;;;4875867;28;95954;-46
2022/05/20 00:49:02;;;;;;;2.05;1.23;;;17.20;77.50;;;;;;4885071;28;95532;-49
2022/05/20 00:51:42;;;;;;;1.00;0.90;;;17.20;77.30;;;;;;4888719;28;95910;-48
2022/05/20 00:54:19;;;;;;;2.17;1.10;;;17.30;77.40;;;;;;4884798;28;95990;-53
2022/05/20 00:57:01;;;;;;;1.77;0.80;;;17.30;77.30;;;;;;4884348;28;95757;-54
2022/05/20 00:59:34;;;;;;;0.93;0.88;;;17.30;77.40;;;;;;4879288;28;97738;-55
2022/05/20 01:02:09;;;;;;;1.15;0.80;;;17.30;77.10;;;;;;4883815;28;95710;-56
2022/05/20 01:04:40;;;;;;;0.80;0.80;;;17.30;77.10;;;;;;4887175;28;96038;-55
2022/05/20 01:07:18;;;;;;;2.42;0.90;;;17.30;77.00;;;;;;4889055;28;95845;-53
2022/05/20 01:09:48;;;;;;;1.08;0.88;;;17.30;77.00;;;;;;4882270;28;97036;-57
2022/05/20 01:12:21;;;;;;;3.60;0.85;;;17.30;77.00;;;;;;4888351;28;95401;-57
2022/05/20 01:14:53;;;;;;;0.90;0.90;;;17.30;77.00;;;;;;4881027;28;95916;-55
2022/05/20 01:17:23;;;;;;;1.35;0.85;;;17.30;76.90;;;;;;4872150;28;96024;-57
2022/05/20 01:19:56;;;;;;;1.38;0.90;;;17.30;76.80;;;;;;4886346;28;96117;-54
2022/05/20 01:22:55;;;;;;;3.65;1.13;;;17.30;76.80;;;;;;4885209;28;95870;-56
2022/05/20 01:25:29;;;;;;;1.98;0.88;;;17.30;76.90;;;;;;4885904;28;96602;-54
2022/05/20 01:28:00;;;;;;;1.05;0.90;;;17.40;76.90;;;;;;4888255;28;95761;-62
2022/05/20 01:30:32;;;;;;;1.07;0.87;;;17.40;76.90;;;;;;4894809;28;96025;-56
2022/05/20 01:33:06;;;;;;;0.88;0.70;;;17.40;77.00;;;;;;4888348;28;96017;-55
2022/05/20 01:35:40;;;;;;;0.50;0.50;;;17.40;77.00;;;;;;4888989;28;96476;-56
2022/05/20 01:38:12;;;;;;;1.40;0.82;;;17.40;76.80;;;;;;4887727;28;96161;-58
2022/05/20 01:40:55;;;;;;;0.98;0.70;;;17.40;76.80;;;;;;4886691;28;95712;-56
2022/05/20 01:43:34;;;;;;;1.60;0.80;;;17.50;76.80;;;;;;4882527;28;96148;-56
2022/05/20 01:46:34;;;;;;;1.10;0.73;;;17.50;76.80;;;;;;4885452;28;100878;-59
2022/05/20 01:49:31;;;;;;;1.67;0.80;;;17.50;76.80;;;;;;4888337;28;95793;-56
2022/05/20 01:52:19;;;;;;;1.10;0.82;;;17.50;76.70;;;;;;4888783;28;95907;-60
2022/05/20 01:55:12;;;;;;;1.70;0.77;;;17.50;76.70;;;;;;4890319;28;97151;-52
2022/05/20 01:57:48;;;;;;;2.10;0.85;;;17.50;76.60;;;;;;4890793;28;96367;-57
2022/05/20 02:00:26;;;;;;;1.73;1.00;;;17.50;77.20;;;;;;4890313;28;95459;-56
2022/05/20 02:02:59;;;;;;;0.95;0.77;;;17.60;76.60;;;;;;4888832;28;95679;-58
2022/05/20 02:05:44;;;;;;;0.70;0.70;;;17.60;76.50;;;;;;4887773;28;97376;-58
2022/05/20 02:08:27;;;;;;;1.58;0.52;;;17.60;76.40;;;;;;4889210;28;97170;-58
2022/05/20 02:11:08;;;;;;;0.50;0.50;;;17.70;76.40;;;;;;4887406;28;96168;-58
2022/05/20 02:13:46;;;;;;;0.60;0.50;;;17.80;76.30;;;;;;4889630;28;96003;-60
2022/05/20 02:16:25;;;;;;;4.13;0.60;;;17.80;76.10;;;;;;4879933;28;96494;-59
2022/05/20 02:19:17;;;;;;;1.10;0.70;;;17.90;75.90;;;;;;4882538;28;96180;-63
2022/05/20 02:21:51;;;;;;;;;;;17.80;75.70;;;;;;4887777;28;95992;-53
2022/05/20 02:24:25;;;;;;;0.43;0.35;;;17.90;75.60;;;;;;4888854;28;95943;-57
2022/05/20 02:27:02;;;;;;;0.70;0.70;;;17.90;75.40;;;;;;4887505;28;95903;-53
2022/05/20 02:30:15;;;;;;;0.60;0.60;;;18.00;75.40;;;;;;4887749;28;96823;-50
2022/05/20 02:32:55;;;;;;;0.70;0.50;;;18.00;75.40;;;;;;4889477;28;102613;-50
2022/05/20 02:35:26;;;;;;;2.85;0.82;;;18.00;75.30;;;;;;4890984;28;95442;-49
2022/05/20 02:38:14;;;;;;;0.85;0.57;;;18.00;75.30;;;;;;4889259;28;95958;-51
2022/05/20 02:40:48;;;;;;;2.00;0.65;;;18.00;75.30;;;;;;4880140;28;96349;-60
2022/05/20 02:43:20;;;;;;;0.95;0.77;;;18.10;75.30;;;;;;4883852;28;96015;-48
2022/05/20 02:45:53;;;;;;;0.52;0.50;;;18.10;75.20;;;;;;4880347;28;95674;-60
2022/05/20 02:48:24;;;;;;;0.52;0.52;;;18.10;75.10;;;;;;4881216;28;95561;-53
2022/05/20 02:50:59;;;;;;;1.35;0.68;;;18.10;75.10;;;;;;4886451;28;97673;-51
2022/05/20 02:53:30;;;;;;;1.33;0.50;;;18.20;75.10;;;;;;4886116;28;96450;-49
2022/05/20 02:56:03;;;;;;;0.85;0.57;;;18.20;75.20;;;;;;4884341;28;95798;-52
2022/05/20 03:04:15;;;;;;;2.28;0.80;;;18.20;74.80;;;;;;4884411;28;96663;-52
2022/05/20 03:06:54;;;;;;;0.80;0.57;;;18.20;74.70;;;;;;4883132;28;95324;-47
2022/05/20 03:09:26;;;;;;;0.75;0.43;;;18.20;74.80;;;;;;4877547;28;96690;-49
2022/05/20 03:11:58;;;;;;;1.05;0.70;;;18.20;74.70;;;;;;4879955;28;96152;-50
2022/05/20 03:14:30;;;;;;;0.68;0.50;;;18.30;74.80;;;;;;4880422;28;96142;-51
2022/05/20 03:17:01;;;;;;;0.65;0.40;;;18.40;74.60;;;;;;4869715;28;96065;-47
2022/05/20 03:19:32;;;;;;;0.43;0.40;;;18.40;74.50;;;;;;4884726;28;96077;-49
2022/05/20 03:22:06;;;;;;;1.08;0.50;;;18.40;74.50;;;;;;4885486;28;97427;-46
2022/05/20 03:24:38;;;;;;;0.60;0.60;;;18.40;74.40;;;;;;4886781;28;95974;-48
2022/05/20 03:27:09;;;;;;;2.83;0.88;;;18.40;74.30;;;;;;4890716;28;95771;-52
2022/05/20 03:29:40;;;;;;;1.52;0.80;;;18.40;74.20;;;;;;4885633;28;95749;-50
2022/05/20 03:32:11;;;;;;;0.68;0.40;;;18.50;74.20;;;;;;4882055;28;96043;-51
2022/05/20 03:34:43;;;;;;;0.90;0.65;;;18.60;74.20;;;;;;4883760;28;98287;-50
2022/05/20 03:37:14;;;;;;;1.05;0.63;;;18.50;74.10;;;;;;4881071;28;97034;-48
2022/05/20 03:39:45;;;;;;;;;;;18.50;74.00;;;;;;4882664;28;95308;-47
2022/05/20 03:42:17;;;;;;;1.00;0.50;;;18.50;74.00;;;;;;4889987;28;95831;-50
2022/05/20 03:44:49;;;;;;;1.00;0.90;;;18.60;74.00;;;;;;4884104;28;96813;-50
2022/05/20 03:47:20;;;;;;;2.50;0.95;;;18.60;74.00;;;;;;4873454;28;95914;-47
2022/05/20 03:49:50;;;;;;;1.60;1.10;;;18.60;74.10;;;;;;4883121;28;95730;-49
2022/05/20 03:52:23;;;;;;;1.45;1.27;;;18.70;74.30;;;;;;4887787;28;95991;-53
2022/05/20 03:54:56;;;;;;;2.90;1.10;;;18.70;74.20;;;;;;4890895;28;95935;-55
2022/05/20 03:57:28;;;;;;;1.17;0.98;;;18.80;74.30;;;;;;4893582;28;95752;-53
2022/05/20 03:59:58;;;;;;;1.30;0.98;;;18.90;74.30;;;;;;4891520;28;95690;-54
2022/05/20 04:02:39;;;;;;;2.63;1.30;;;19.00;74.20;;;;;;4881147;28;95869;-59
2022/05/20 04:05:13;;;;;;;1.00;0.90;;;19.10;74.10;;;;;;4888393;28;96717;-50
2022/05/20 04:07:43;;;;;;;1.10;1.00;;;19.20;73.80;;;;;;4887877;28;95909;-51
2022/05/20 04:10:15;;;;;;;1.25;1.13;;;19.30;73.90;;;;;;4888708;28;96507;-53
2022/05/20 04:12:46;;;;;;;1.52;1.27;;;19.30;74.00;;;;;;4887747;28;96766;-54
2022/05/20 04:15:17;;;;;;;1.45;1.20;;;19.40;74.00;;;;;;4881482;28;98281;-58
2022/05/20 04:17:49;;;;;;;1.13;1.00;;;19.50;74.10;;;;;;4875916;28;95973;-53
2022/05/20 04:20:20;;;;;;;1.45;1.08;;;19.50;74.00;;;;;;4888545;28;95774;-51
2022/05/20 04:22:52;;;;;;;3.10;1.55;;;19.60;73.90;;;;;;4884289;28;96211;-50
2022/05/20 04:25:24;;;;;;;1.25;1.08;;;19.60;72.90;;;;;;4887528;28;96303;-52
2022/05/20 04:27:58;;;;;;;2.60;1.10;;;19.60;72.80;;;;;;4889796;28;95868;-53
2022/05/20 04:30:28;;;;;;;2.23;1.37;;;19.60;72.90;;;;;;4883237;28;96009;-49
2022/05/20 04:32:59;;;;;;;1.83;1.25;;;19.60;72.80;;;;;;4877078;28;102677;-50
2022/05/20 04:35:30;;;;;;;1.73;0.93;;;19.60;72.70;;;;;;4885448;28;95649;-50
2022/05/20 04:38:01;;;;;;;1.60;1.10;;;19.50;72.60;;;;;;4883843;28;95915;-52
2022/05/20 04:40:32;;;;;;;1.00;0.95;;;19.50;72.60;;;;;;4890057;28;95830;-54
2022/05/20 04:48:43;;;;;;;0.98;0.95;;;19.50;72.40;;;;;;4890380;28;95889;-47
2022/05/20 04:51:14;;;;;;;1.20;1.10;;;19.60;73.10;;;;;;4889143;28;95451;-48
2022/05/20 04:56:34;;;;;;;1.30;1.20;;;19.60;72.40;;;;;;4891697;28;95883;-46
2022/05/20 04:59:05;;;;;;;0.77;0.73;;;19.50;72.40;;;;;;4885287;28;96280;-45
2022/05/20 05:01:35;;;;;;;1.17;1.07;;;19.60;72.30;;;;;;4883299;28;96159;-46
2022/05/20 05:04:05;;;;;;;1.20;1.10;;;19.60;72.30;;;;;;4889132;28;96560;-57
2022/05/20 05:06:35;;;;;;;2.00;1.30;;;19.60;72.30;;;;;;4893276;28;96087;-50
2022/05/20 05:09:06;;;;;;;3.38;1.30;;;19.70;72.40;;;;;;4882996;28;95759;-44
2022/05/20 05:11:39;;;;;;;1.55;1.02;;;19.60;72.30;;;;;;4889399;28;95845;-55
2022/05/20 05:14:13;;;;;;;1.27;0.95;;;19.70;72.30;;;;;;4887790;28;95987;-48
2022/05/20 05:16:44;;;;;;;2.50;1.40;;;19.70;72.30;;;;;;4882254;28;95846;-58
2022/05/20 05:19:15;;;;;;;1.00;0.93;;;19.70;72.30;;;;;;4885410;28;96047;-59
2022/05/20 05:21:45;;;;;;;;;;;19.70;72.20;;;;;;4887198;28;95753;-51
2022/05/20 05:24:17;;;;;;;2.77;1.30;;;19.70;72.20;;;;;;4890227;28;96201;-46
2022/05/20 05:26:47;;;;;;;2.00;1.30;;;19.70;72.20;;;;;;4885700;28;96069;-54
2022/05/20 05:29:19;;;;;;;1.75;1.13;;;19.80;72.10;;;;;;4883413;28;96524;-55
2022/05/20 05:31:50;;;;;;;;;;;19.80;72.00;;;;;;4882711;28;95513;-53
2022/05/20 05:34:22;;;;;;;1.85;1.02;;;19.80;71.80;;;;;;4893811;28;96763;-60
2022/05/20 05:36:52;;;;;;;1.58;0.88;;;19.80;71.80;;;;;;4881503;28;98405;-50
2022/05/20 05:39:24;;;;;;;;;;;19.80;71.70;;;;;;4888719;28;96529;-55
2022/05/20 05:42:00;;;;;;;1.10;1.00;;;19.80;71.70;;;;;;4885979;28;95889;-57
2022/05/20 05:44:40;;;;;;;1.88;1.13;;;19.80;71.60;;;;;;4884847;28;96560;-56
2022/05/20 05:47:09;;;;;;;2.33;1.20;;;19.80;71.60;;;;;;4881375;28;96109;-54
2022/05/20 05:49:40;;;;;;;2.13;1.10;;;19.80;71.60;;;;;;4887791;28;95897;-53
2022/05/20 05:52:12;;;;;;;1.80;1.20;;;19.80;71.60;;;;;;4887209;28;95438;-47
2022/05/20 05:54:44;;;;;;;1.17;1.00;;;19.80;71.60;;;;;;4889009;28;95939;-49
2022/05/20 05:57:16;;;;;;;2.25;1.08;;;19.80;71.50;;;;;;4886434;28;95529;-46
2022/05/20 05:59:46;;;;;;;1.60;1.33;;;19.80;71.60;;;;;;4886790;28;95713;-52
2022/05/20 06:02:17;;;;;;;1.98;1.27;;;19.70;71.50;;;;;;4884103;28;95343;-59
2022/05/20 06:04:50;;;;;;;;;;;19.80;71.60;;;;;;4887335;28;96120;-53
2022/05/20 06:07:22;;;;;;;3.17;1.17;;;19.70;71.30;;;;;;4882232;28;95484;-54
2022/05/20 06:09:54;;;;;;;2.33;1.00;;;19.70;71.50;;;;;;4885068;28;95741;-51
2022/05/20 06:12:27;;;;;;;1.77;1.30;;;19.70;71.40;;;;;;4885270;28;95552;-53
2022/05/20 06:14:59;;;;;;;2.08;1.00;;;19.70;71.50;;;;;;4890816;28;96267;-55
2022/05/20 06:17:32;;;;;;;1.92;1.08;;;19.70;72.00;;;;;;4873683;28;96127;-49
2022/05/20 06:20:05;;;;;;;1.70;1.13;;;19.70;71.60;;;;;;4884076;28;100922;-48
2022/05/20 06:22:37;;;;;;;2.53;1.38;;;19.70;71.60;;;;;;4888018;28;96026;-47
2022/05/20 06:25:09;;;;;;;1.05;0.95;;;19.70;71.50;;;;;;4883908;28;95977;-51
2022/05/20 06:27:43;;;;;;;1.35;1.15;;;19.80;71.60;;;;;;4884766;28;96055;-49
2022/05/20 06:30:20;;;;;;;1.73;1.27;;;19.80;71.60;;;;;;4877836;28;95321;-52
2022/05/20 06:32:51;;;;;;;2.03;1.20;;;19.80;71.70;;;;;;4889287;28;95675;-50
2022/05/20 06:41:04;;;;;;;2.05;1.38;;;19.70;71.60;;;;;;4892039;28;95932;-52
2022/05/20 06:43:35;;;;;;;1.05;0.98;;;19.70;72.20;;;;;;4891893;28;95413;-53
2022/05/20 06:46:07;;;;;;;1.55;1.30;;;19.70;71.50;;;;;;4884644;28;96909;-51
2022/05/20 06:48:56;;;;;;;1.20;1.10;;;19.70;71.50;;;;;;4890997;28;95417;-48
2022/05/20 06:51:38;;;;;;;1.48;1.02;;;19.70;71.30;;;;;;4886674;28;95685;-54
2022/05/20 06:54:12;;;;;;;1.45;1.10;;;19.70;71.20;;;;;;4891460;28;95472;-54
2022/05/20 06:56:45;;;;;;;1.38;1.10;;;19.70;71.10;;;;;;4890847;28;97201;-53
2022/05/20 06:59:17;;;;;;;2.13;1.70;;;19.70;71.10;;;;;;4890819;28;96315;-53
2022/05/20 07:01:49;;;;;;;1.27;1.10;;;19.60;71.20;;;;;;4886701;28;95797;-52
2022/05/20 07:04:39;;;;;;;1.75;1.00;;;19.60;71.10;;;;;;4891189;28;95982;-50
2022/05/20 07:07:14;;;;;;;2.22;1.10;;;19.50;71.30;;;;;;4890202;28;95934;-52
2022/05/20 07:09:46;;;;;;;1.35;1.20;;;19.50;71.30;;;;;;4890539;28;95987;-56
2022/05/20 07:12:26;;;;;;;1.45;1.08;;;19.50;71.20;;;;;;4890078;28;95754;-54
2022/05/20 07:14:57;;;;;;;;;;;19.50;71.30;;;;;;4894430;28;95366;-51
2022/05/20 07:17:35;;;;;;;1.98;1.30;;;19.60;71.30;;;;;;4878663;28;98928;-53
2022/05/20 07:20:07;;;;;;;1.52;1.40;;;19.50;71.10;;;;;;4886202;28;96773;-54
2022/05/20 07:22:39;;;;;;;0.90;0.90;;;19.50;71.00;;;;;;4889753;28;95844;-55
2022/05/20 07:25:11;;;;;;;1.40;1.20;;;19.50;71.10;;;;;;4886858;28;96494;-51
2022/05/20 07:27:42;;;;;;;1.35;1.10;;;19.60;70.90;;;;;;4885136;28;96094;-55
2022/05/20 07:30:15;;;;;;;1.67;1.00;;;19.50;70.80;;;;;;4883427;28;96135;-52
2022/05/20 07:32:49;;;;;;;1.05;0.98;;;19.50;70.80;;;;;;4890793;28;95969;-49
2022/05/20 07:35:21;;;;;;;1.35;1.25;;;19.50;70.80;;;;;;4898271;28;96046;-55
2022/05/20 07:37:52;;;;;;;2.60;1.15;;;19.40;70.90;;;;;;4883690;28;96119;-51
2022/05/20 07:40:23;;;;;;;1.40;1.30;;;19.50;71.00;;;;;;4889748;28;96028;-51
2022/05/20 07:42:54;;;;;;;;;;;19.50;71.00;;;;;;4889044;28;95339;-51
2022/05/20 07:45:29;;;;;;;1.20;1.10;;;19.50;70.80;;;;;;4885117;28;95695;-53
2022/05/20 07:48:00;;;;;;;2.10;1.60;;;19.50;70.80;;;;;;4894092;28;96061;-56
2022/05/20 07:50:36;;;;;;;2.78;1.67;;;19.50;71.00;;;;;;4891988;28;96383;-51
2022/05/20 07:53:20;;;;;;;4.72;1.80;;;19.60;70.60;;;;;;4884621;28;95756;-51
2022/05/20 07:55:59;;;;;;;1.75;1.60;;;19.60;70.10;;;;;;4883778;28;95701;-52
2022/05/20 07:58:33;;;;;;;3.30;2.28;;;19.60;70.10;;;;;;4880429;28;96603;-51
2022/05/20 08:01:24;;;;;;;1.73;1.60;;;19.60;69.80;;;;;;4880937;28;96180;-54
2022/05/20 08:06:52;;;;;;;2.53;1.38;;;19.70;69.60;;;;;;4880235;28;96201;-53
2022/05/20 08:09:28;;;;;;;2.80;1.90;;;19.70;69.50;;;;;;4881691;28;95908;-53
2022/05/20 08:12:00;;;;;;;1.98;1.88;;;19.70;70.30;;;;;;4877719;28;95858;-51
2022/05/20 08:14:31;;;;;;;3.90;2.15;;;19.70;70.30;;;;;;4883343;28;95705;-53
2022/05/20 08:17:04;;;;;;;2.97;2.25;;;19.80;70.60;;;;;;4873141;28;95862;-53
2022/05/20 08:19:35;;;;;;;2.85;2.03;;;19.70;70.60;;;;;;4881291;28;96215;-52
2022/05/20 08:22:06;;;;;;;3.35;2.33;;;19.70;70.70;;;;;;4883448;28;95602;-51
2022/05/20 08:24:40;;;;;;;2.25;2.05;;;19.70;70.80;;;;;;4892719;28;95813;-54
2022/05/20 08:27:11;;;;;;;2.47;2.00;;;19.70;70.80;;;;;;4889665;28;95836;-51
2022/05/20 08:29:42;;;;;;;5.03;2.58;;;19.60;71.00;;;;;;4881880;28;96607;-50
2022/05/20 08:32:14;;;;;;;2.33;2.10;;;19.60;70.90;;;;;;4874951;28;97188;-52
2022/05/20 08:34:47;;;;;;;4.28;2.50;;;19.60;71.00;;;;;;4886449;28;96083;-51
2022/05/20 08:37:19;;;;;;;3.15;2.65;;;19.60;70.70;;;;;;4888484;28;95684;-54
2022/05/20 08:39:52;;;;;;;2.53;2.33;;;19.60;70.80;;;;;;4889293;28;96400;-52
2022/05/20 08:42:31;;;;;;;3.05;2.35;;;19.50;70.80;;;;;;4889032;28;95860;-54
2022/05/20 08:45:04;;;;;;;4.05;2.30;;;19.50;70.80;;;;;;4889168;28;95761;-53
2022/05/20 08:47:48;;;;;;;3.50;2.65;;;19.50;70.80;;;;;;4900417;28;96496;-51
2022/05/20 08:50:25;;;;;;;3.63;3.20;;;19.40;70.80;;;;;;4904593;28;96998;-51
2022/05/20 08:52:57;;;;;;;2.65;2.45;;;19.40;70.80;;;;;;4906749;28;95426;-52
2022/05/20 08:55:30;;;;;;;4.82;3.00;;;19.40;70.90;;;;;;4903020;28;95751;-49
2022/05/20 08:58:03;;;;;;;3.70;2.92;;;19.40;71.00;;;;;;4906395;28;95806;-52
2022/05/20 09:00:34;;;;;;;4.00;3.42;;;19.30;70.90;;;;;;4899291;28;96851;-52
2022/05/20 09:03:07;;;;;;;3.58;3.28;;;19.30;71.00;;;;;;4900810;28;95406;-52
2022/05/20 09:05:42;;;;;;;4.65;3.28;;;19.20;70.90;;;;;;4906283;28;96172;-50
2022/05/20 09:08:15;;;;;;;4.82;3.63;;;19.20;71.00;;;;;;4903773;28;95794;-51
2022/05/20 09:10:49;;;;;;;4.65;3.60;;;19.20;71.10;;;;;;4907329;28;95907;-55
2022/05/20 09:16:18;;;;;;;4.60;3.95;;;19.10;71.10;;;;;;4890204;28;97019;-52
2022/05/20 09:19:09;;;;;;;5.30;4.40;;;19.10;71.00;;;;;;4877415;28;96184;-55
2022/05/20 09:21:43;;;;;;;5.97;4.22;;;19.00;71.00;;;;;;4879176;28;96436;-49
2022/05/20 09:24:22;;;;;;;6.88;4.10;;;19.00;70.90;;;;;;4879513;28;95842;-53
2022/05/20 09:27:04;;;;;;;6.10;4.60;;;19.00;71.00;;;;;;4887603;28;95561;-51
2022/05/20 09:29:53;;;;;;;6.68;4.03;;;18.90;71.00;;;;;;4884713;28;95564;-48
2022/05/20 09:32:39;;;;;;;4.35;3.95;;;18.90;71.00;;;;;;4874986;28;96134;-52
2022/05/20 09:35:19;;;;;;;6.15;4.65;;;18.90;70.90;;;;;;4884425;28;95929;-51
2022/05/20 09:37:53;;;;;;;4.90;3.90;;;18.80;71.00;;;;;;4884888;28;95293;-55
2022/05/20 09:40:36;;;;;;;6.85;4.35;;;18.80;70.80;;;;;;4877127;28;95963;-51
2022/05/20 09:43:38;;;;;;;12.75;4.90;;;18.80;70.90;;;;;;4868964;28;96912;-56
2022/05/20 09:46:30;;;;;;;5.95;4.57;;;18.70;71.10;;;;;;4869918;28;99034;-56
2022/05/20 09:49:16;;;;;;;7.82;5.20;;;18.70;71.10;;;;;;4875083;28;95644;-56
2022/05/20 09:51:54;;;;;;;6.63;4.72;;;18.70;71.20;;;;;;4885430;28;95959;-56
2022/05/20 09:54:26;;;;;;;6.47;4.45;;;18.60;71.20;;;;;;4872081;28;95940;-57
2022/05/20 09:57:14;;;;;;;7.07;4.57;;;18.60;71.30;;;;;;4875450;28;95698;-58
2022/05/20 10:00:26;;;;;;;4.78;4.38;;;18.50;71.40;;;;;;4875494;28;96557;-56
2022/05/20 10:03:25;;;;;;;5.15;4.55;;;18.50;71.50;;;;;;4889223;28;95939;-57
2022/05/20 10:06:28;;;;;;;9.07;4.53;;;18.50;71.70;;;;;;4886494;28;96599;-56
2022/05/20 10:09:15;;;;;;;7.03;5.65;;;18.40;71.50;;;;;;4883662;28;95266;-57
2022/05/20 10:12:29;;;;;;;9.15;5.15;;;18.30;70.90;;;;;;4913330;28;95716;-56
2022/05/20 10:15:12;;;;;;;6.28;4.30;;;18.30;70.80;;;;;;4880402;28;96507;-55
2022/05/20 10:17:52;;;;;;;8.90;4.82;;;18.20;71.10;;;;;;4897561;28;103639;-57
2022/05/20 10:20:44;;;;;;;17.20;4.63;;;18.20;71.20;;;;;;4894847;28;95503;-57
2022/05/20 10:23:40;;;;;;;7.90;5.63;;;18.20;71.30;;;;;;4900782;28;95611;-55
2022/05/20 10:26:35;;;;;;;7.30;4.65;;;18.20;71.50;;;;;;4899920;28;95482;-56
2022/05/20 10:32:50;;;;;;;8.35;5.43;;;18.00;71.40;;;;;;4908372;28;95523;-59
2022/05/20 10:35:24;;;;;;;5.57;5.07;;;18.00;71.40;;;;;;4907520;28;95657;-57
2022/05/20 10:38:30;;;;;;;7.50;5.38;;;18.00;71.50;;;;;;4913044;28;95698;-58
2022/05/20 10:41:19;;;;;;;7.65;4.97;;;17.90;71.60;;;;;;4918904;28;96593;-58
2022/05/20 10:50:32;;;;;;;6.43;5.05;;;17.80;72.00;;;;;;4909078;28;95897;-57
2022/05/20 10:53:19;;;;;;;6.47;5.22;;;17.80;72.00;;;;;;4906945;28;97189;-58
2022/05/20 10:56:11;;;;;;;6.80;5.32;;;17.70;72.10;;;;;;4903265;28;95645;-58
2022/05/20 10:59:15;;;;;;;6.00;5.38;;;17.60;72.10;;;;;;4904528;28;95437;-56
2022/05/20 11:02:16;;;;;;;6.80;5.40;;;17.60;72.10;;;;;;4905249;28;95425;-57
2022/05/20 11:05:25;;;;;;;8.32;5.72;;;17.60;72.40;;;;;;4906752;28;95965;-58
2022/05/20 11:08:10;;;;;;;7.35;5.55;;;17.50;72.20;;;;;;4912596;28;95558;-61
2022/05/20 11:11:04;;;;;;;5.95;5.13;;;17.50;72.20;;;;;;4909350;28;95163;-60
2022/05/20 11:13:51;;;;;;;7.72;5.20;;;17.40;72.20;;;;;;4912342;28;95831;-59
2022/05/20 11:16:25;;;;;;;5.93;5.28;;;17.40;72.30;;;;;;4897518;28;96678;-59
2022/05/20 11:19:50;;;;;;;6.57;5.60;;;17.40;72.30;;;;;;4903702;28;95825;-59
2022/05/20 11:22:24;;;;;;;8.52;5.78;;;17.40;73.00;;;;;;4889550;28;97744;-59
2022/05/20 11:25:31;;;;;;;7.18;5.95;;;17.40;72.30;;;;;;4890452;28;95793;-59
2022/05/20 11:28:21;;;;;;;8.20;6.25;;;17.30;72.20;;;;;;4879024;28;95913;-59
2022/05/20 11:31:17;;;;;;;8.18;5.85;;;17.30;72.30;;;;;;4880986;28;98453;-57
2022/05/20 11:33:57;;;;;;;8.48;6.13;;;17.30;72.30;;;;;;4883551;28;95847;-58
2022/05/20 11:37:00;;;;;;;7.60;5.97;;;17.30;72.40;;;;;;4883356;28;95849;-57
2022/05/20 11:39:49;;;;;;;8.73;6.15;;;17.30;72.90;;;;;;4867528;28;95964;-58
2022/05/20 11:42:39;;;;;;;7.55;5.75;;;17.40;72.90;;;;;;4886601;28;95368;-60
2022/05/20 11:45:35;;;;;;;7.93;6.20;;;17.40;73.10;;;;;;4886890;28;95864;-58
2022/05/20 11:48:30;;;;;;;7.10;6.20;;;17.30;73.10;;;;;;4882276;28;95829;-59
2022/05/20 11:51:01;;;;;;;7.70;6.35;;;17.30;73.10;;;;;;4883659;28;96131;-58
2022/05/20 11:53:38;;;;;;;;;;;17.30;73.00;;;;;;4880096;28;95701;-55
2022/05/20 11:56:23;;;;;;;7.90;6.00;;;17.30;73.00;;;;;;4894813;28;95574;-57
2022/05/20 11:59:16;;;;;;;8.75;6.57;;;17.20;72.90;;;;;;4903998;28;95874;-58
2022/05/20 12:01:51;;;;;;;8.77;6.63;;;17.30;72.90;;;;;;4894974;28;96657;-57
2022/05/20 12:04:27;;;;;;;9.57;6.63;;;17.30;72.50;;;;;;4905842;28;95723;-57
2022/05/20 12:07:10;;;;;;;7.68;6.40;;;17.30;72.40;;;;;;4909823;28;95285;-56
2022/05/20 12:09:50;;;;;;;7.85;6.70;;;17.40;72.40;;;;;;4910338;28;96416;-57
2022/05/20 12:12:31;;;;;;;10.43;8.40;;;17.40;72.20;;;;;;4907576;28;96126;-57
2022/05/20 12:15:14;;;;;;;9.23;7.30;;;17.40;71.90;;;;;;4910082;28;95938;-55
2022/05/20 12:17:48;;;;;;;7.03;5.82;;;17.40;71.80;;;;;;4895767;28;96241;-57
2022/05/20 12:26:03;;;;;;;7.13;6.40;;;17.50;71.50;;;;;;4908529;28;95970;-56
2022/05/20 12:28:39;;;;;;;9.73;7.13;;;17.50;71.40;;;;;;4907955;28;95881;-57
2022/05/20 12:31:23;;;;;;;10.15;6.63;;;17.50;71.00;;;;;;4903463;28;95950;-56
2022/05/20 12:34:03;;;;;;;7.63;6.22;;;17.50;71.00;;;;;;4906800;28;96591;-55
2022/05/20 12:36:36;;;;;;;9.40;7.00;;;17.50;70.90;;;;;;4908650;28;96049;-57
2022/05/20 12:39:14;;;;;;;8.00;6.70;;;17.50;70.80;;;;;;4908501;28;96343;-57
2022/05/20 12:41:52;;;;;;;7.57;6.78;;;17.40;70.60;;;;;;4908863;28;95954;-56
2022/05/20 12:44:25;;;;;;;8.00;5.95;;;17.50;70.70;;;;;;4907688;28;96269;-58
2022/05/20 12:47:27;;;;;;;7.70;6.57;;;17.50;70.60;;;;;;4902472;28;98037;-55
2022/05/20 12:50:09;;;;;;;9.35;6.50;;;17.50;70.50;;;;;;4909814;28;95630;-58
2022/05/20 12:52:51;;;;;;;9.57;6.93;;;17.50;70.40;;;;;;4909771;28;95835;-57
2022/05/20 12:55:37;;;;;;;7.30;6.05;;;17.50;70.10;;;;;;4909660;28;96122;-58
2022/05/20 12:58:12;;;;;;;8.88;6.45;;;17.50;70.40;;;;;;4908520;28;95657;-57
2022/05/20 13:00:50;;;;;;;8.15;6.53;;;17.50;70.10;;;;;;4901437;28;96077;-57
2022/05/20 13:03:42;;;;;;;7.80;6.20;;;17.50;70.10;;;;;;4905759;28;95775;-58
2022/05/20 13:06:26;;;;;;;9.20;7.03;;;17.50;69.80;;;;;;4908904;28;96520;-58
2022/05/20 13:08:59;;;;;;;9.68;6.25;;;17.50;69.90;;;;;;4908721;28;95481;-57
2022/05/20 13:11:41;;;;;;;10.45;7.22;;;17.50;69.80;;;;;;4904307;28;95566;-58
2022/05/20 13:14:19;;;;;;;9.45;7.05;;;17.50;69.70;;;;;;4908688;28;95762;-57
2022/05/20 13:17:02;;;;;;;9.70;7.47;;;17.50;69.70;;;;;;4894186;28;95886;-57
2022/05/20 13:19:54;;;;;;;8.10;6.32;;;17.50;69.40;;;;;;4898676;28;96256;-57
2022/05/20 13:22:28;;;;;;;9.18;7.20;;;17.40;69.60;;;;;;4900649;28;95555;-57
2022/05/20 13:25:05;;;;;;;9.73;7.03;;;17.40;69.60;;;;;;4895313;28;95989;-58
2022/05/20 13:27:44;;;;;;;8.20;6.95;;;17.40;69.80;;;;;;4899874;28;95922;-58
2022/05/20 13:30:22;;;;;;;9.52;7.10;;;17.40;69.80;;;;;;4901371;28;95894;-56
2022/05/20 13:32:59;;;;;;;8.90;6.68;;;17.30;69.80;;;;;;4899899;28;95591;-56
2022/05/20 13:35:39;;;;;;;9.98;7.72;;;17.30;69.80;;;;;;4906300;28;96046;-55
2022/05/20 13:38:11;;;;;;;9.38;7.40;;;17.30;70.00;;;;;;4908640;28;96006;-56
2022/05/20 13:40:44;;;;;;;13.02;9.52;;;17.30;70.00;;;;;;4901067;28;96177;-56
2022/05/20 13:43:17;;;;;;;11.85;7.53;;;17.30;66.70;;;;;;4907518;28;95672;-56
2022/05/20 13:51:42;;;;;;;9.65;7.47;;;17.40;69.80;;;;;;4913033;28;95726;-55
2022/05/20 13:54:25;;;;;;;8.85;7.05;;;17.40;69.70;;;;;;4913456;28;95889;-52
2022/05/20 13:56:57;;;;;;;9.48;7.57;;;17.40;69.60;;;;;;4915116;28;95796;-55
2022/05/20 13:59:30;;;;;;;9.82;7.00;;;17.40;69.60;;;;;;4913962;28;96547;-54
2022/05/20 14:02:10;;;;;;;9.82;7.35;;;17.40;69.60;;;;;;4908616;28;95676;-55
2022/05/20 14:04:46;;;;;;;9.80;7.47;;;17.40;69.60;;;;;;4904082;28;95645;-54
2022/05/20 14:07:38;;;;;;;9.65;6.20;;;17.40;69.50;;;;;;4913921;28;95387;-54
2022/05/20 14:10:27;;;;;;;9.15;7.32;;;17.30;69.50;;;;;;4912266;28;95870;-56
2022/05/20 14:13:12;;;;;;;8.15;5.93;;;17.30;69.30;;;;;;4912947;28;95803;-56
2022/05/20 14:15:51;;;;;;;8.13;7.07;;;17.30;69.40;;;;;;4907177;28;95937;-54
2022/05/20 14:18:30;;;;;;;8.32;7.18;;;17.30;69.40;;;;;;4911747;28;96159;-55
2022/05/20 14:21:12;;;;;;;9.43;6.65;;;17.30;69.30;;;;;;4912937;28;96773;-53
2022/05/20 14:23:49;;;;;;;8.85;6.70;;;17.30;69.30;;;;;;4911843;28;95638;-53
2022/05/20 14:26:33;;;;;;;9.60;7.32;;;17.30;69.40;;;;;;4911244;28;95719;-55
2022/05/20 14:29:34;;;;;;;8.02;6.78;;;17.20;69.40;;;;;;4913542;28;96010;-52